Time;durP1;ratioP1;P1;durP2;ratioP2;P2;SDS_P1;SDS_P2;PMS_P1;PMS_P2;Temp;Humidity;BMP_temperature;BMP_pressure;BME280_temperature;BME280_humidity;BME280_pressure;Samples;Min_cycle;Max_cycle;Signal;HPM_P1;HPM_P2
2022/09/19 00:01:56;;;;;;;1.00;0.70;;;11.00;99.90;;;;;;5054943;28;20838;-68
2022/09/19 00:04:28;;;;;;;0.90;0.70;;;11.10;99.90;;;;;;5056330;28;20167;-68
2022/09/19 00:06:55;;;;;;;1.00;0.67;;;10.80;99.90;;;;;;5055310;28;20961;-68
2022/09/19 00:09:26;;;;;;;0.93;0.80;;;10.80;99.90;;;;;;5056383;28;20410;-68
2022/09/19 00:11:53;;;;;;;0.97;0.50;;;10.90;99.90;;;;;;5056056;28;20833;-68
2022/09/19 00:14:25;;;;;;;0.70;0.50;;;10.80;99.90;;;;;;5056307;28;20436;-68
2022/09/19 00:16:56;;;;;;;0.70;0.50;;;10.60;99.90;;;;;;5061778;28;20393;-67
2022/09/19 00:19:22;;;;;;;0.70;0.50;;;10.70;99.90;;;;;;5060814;28;20433;-69
2022/09/19 00:21:48;;;;;;;0.70;0.50;;;10.60;99.90;;;;;;5060065;28;20432;-70
2022/09/19 00:27:04;;;;;;;2.23;0.80;;;10.70;99.90;;;;;;5054684;28;20423;-68
2022/09/19 00:29:31;;;;;;;0.60;0.40;;;10.70;99.90;;;;;;5055680;28;20413;-68
2022/09/19 00:31:57;;;;;;;0.80;0.40;;;10.50;99.90;;;;;;5055366;28;20501;-68
2022/09/19 00:34:23;;;;;;;0.73;0.40;;;10.40;99.90;;;;;;5053333;28;20417;-68
2022/09/19 00:36:49;;;;;;;0.70;0.50;;;10.50;99.90;;;;;;5055758;28;20174;-68
2022/09/19 00:39:17;;;;;;;0.87;0.60;;;10.40;99.90;;;;;;5055258;28;20857;-68
2022/09/19 00:41:43;;;;;;;0.70;0.40;;;10.50;99.90;;;;;;5055225;28;20560;-68
2022/09/19 00:44:21;;;;;;;0.70;0.60;;;10.40;99.90;;;;;;5054664;28;20399;-69
2022/09/19 00:46:50;;;;;;;1.17;0.50;;;10.40;99.90;;;;;;5034746;28;20408;-68
2022/09/19 00:49:19;;;;;;;0.90;0.50;;;10.60;99.90;;;;;;5035272;28;20405;-69
2022/09/19 00:51:50;;;;;;;0.70;0.70;;;10.60;99.90;;;;;;5054795;28;20506;-68
2022/09/19 00:54:21;;;;;;;1.10;0.60;;;10.60;99.90;;;;;;5054707;28;20425;-68
2022/09/19 00:56:51;;;;;;;0.60;0.50;;;10.60;99.90;;;;;;5055188;28;20480;-68
2022/09/19 00:59:18;;;;;;;1.00;0.50;;;10.60;99.90;;;;;;5053369;28;20868;-68
2022/09/19 01:01:45;;;;;;;0.70;0.50;;;10.40;99.90;;;;;;5054805;28;20451;-68
2022/09/19 01:04:18;;;;;;;0.97;0.57;;;10.40;99.90;;;;;;5054193;28;20440;-68
2022/09/19 01:07:06;;;;;;;0.70;0.60;;;10.30;99.90;;;;;;5055280;28;20427;-68
2022/09/19 01:09:40;;;;;;;1.83;0.50;;;10.50;99.90;;;;;;5054989;28;20439;-68
2022/09/19 01:12:47;;;;;;;0.70;0.50;;;10.50;99.90;;;;;;5053568;28;20448;-68
2022/09/19 01:15:19;;;;;;;0.97;0.50;;;10.60;99.90;;;;;;5054633;28;20480;-68
2022/09/19 01:17:57;;;;;;;0.70;0.50;;;10.60;99.90;;;;;;5054745;28;20401;-68
2022/09/19 01:20:40;;;;;;;0.60;0.40;;;10.50;99.90;;;;;;5054680;28;20390;-68
2022/09/19 01:23:43;;;;;;;0.97;0.57;;;10.50;99.90;;;;;;5053938;28;20772;-69
2022/09/19 01:26:39;;;;;;;0.80;0.50;;;10.40;99.90;;;;;;5053818;28;20403;-68
2022/09/19 01:29:16;;;;;;;1.07;0.60;;;10.40;99.90;;;;;;5054732;28;20485;-68
2022/09/19 01:31:45;;;;;;;1.83;0.60;;;10.40;99.90;;;;;;5054308;28;20421;-68
2022/09/19 01:34:32;;;;;;;0.70;0.40;;;10.40;99.90;;;;;;5053536;28;20415;-68
2022/09/19 01:37:17;;;;;;;1.00;0.60;;;10.40;99.90;;;;;;5054659;28;20458;-68
2022/09/19 01:39:46;;;;;;;0.80;0.60;;;10.30;99.90;;;;;;5055361;28;20441;-68
2022/09/19 01:42:14;;;;;;;0.70;0.60;;;10.30;99.90;;;;;;5053822;28;20422;-68
2022/09/19 01:44:39;;;;;;;0.80;0.57;;;10.20;99.90;;;;;;5055101;28;20492;-68
2022/09/19 01:47:52;;;;;;;0.90;0.60;;;10.10;99.90;;;;;;5054445;28;20916;-68
2022/09/19 01:50:36;;;;;;;0.70;0.60;;;10.00;99.90;;;;;;5054046;28;20165;-68
2022/09/19 01:53:20;;;;;;;1.30;0.80;;;9.80;99.90;;;;;;5054578;28;20471;-68
2022/09/19 01:55:48;;;;;;;1.10;0.83;;;9.70;99.90;;;;;;5053789;28;20882;-67
2022/09/19 01:58:25;;;;;;;0.80;0.77;;;9.60;99.90;;;;;;5053933;28;20776;-68
2022/09/19 02:01:02;;;;;;;1.53;0.73;;;9.70;99.90;;;;;;5054379;28;20451;-68
2022/09/19 02:03:52;;;;;;;1.20;0.80;;;9.70;99.90;;;;;;5054546;28;20416;-67
2022/09/19 02:06:37;;;;;;;0.80;0.50;;;9.70;99.90;;;;;;5054087;28;20393;-68
2022/09/19 02:09:18;;;;;;;0.90;0.50;;;9.80;99.90;;;;;;5053044;28;20841;-68
2022/09/19 02:11:45;;;;;;;1.23;0.60;;;9.90;99.90;;;;;;5053418;28;20903;-68
2022/09/19 02:14:17;;;;;;;1.97;0.70;;;9.80;99.90;;;;;;5053956;28;20448;-68
2022/09/19 02:16:51;;;;;;;1.00;0.90;;;10.00;99.90;;;;;;5053873;28;20442;-68
2022/09/19 02:19:35;;;;;;;1.20;0.63;;;10.00;99.90;;;;;;5053754;28;20863;-68
2022/09/19 02:22:09;;;;;;;1.07;0.73;;;9.80;99.90;;;;;;5053468;28;20986;-68
2022/09/19 02:24:39;;;;;;;1.93;0.80;;;9.80;99.90;;;;;;5053322;28;20400;-68
2022/09/19 02:27:17;;;;;;;2.30;0.80;;;9.80;99.90;;;;;;5052206;28;20498;-68
2022/09/19 02:29:49;;;;;;;1.00;0.70;;;9.60;99.90;;;;;;5053577;28;20858;-68
2022/09/19 02:32:19;;;;;;;1.70;0.70;;;9.60;99.90;;;;;;5053316;28;20473;-68
2022/09/19 02:34:48;;;;;;;2.50;0.90;;;9.60;99.90;;;;;;5035402;28;20428;-68
2022/09/19 02:37:35;;;;;;;1.73;0.80;;;9.50;99.90;;;;;;5051197;28;20502;-68
2022/09/19 02:40:35;;;;;;;1.43;0.70;;;9.70;99.90;;;;;;5033202;28;20933;-68
2022/09/19 02:43:07;;;;;;;2.30;0.80;;;9.70;99.90;;;;;;5021882;28;20422;-67
2022/09/19 02:45:40;;;;;;;1.10;0.70;;;9.50;99.90;;;;;;5033338;28;20418;-68
2022/09/19 02:48:21;;;;;;;3.63;0.90;;;9.70;99.90;;;;;;5042926;28;20482;-68
2022/09/19 02:51:08;;;;;;;1.10;0.70;;;9.80;99.90;;;;;;5033548;28;20789;-68
2022/09/19 02:53:40;;;;;;;3.40;0.90;;;9.80;99.90;;;;;;5051674;28;20403;-68
2022/09/19 02:56:06;;;;;;;1.00;0.70;;;9.70;99.90;;;;;;5032540;28;20480;-68
2022/09/19 02:58:43;;;;;;;2.90;0.93;;;9.60;99.90;;;;;;5033104;28;20900;-68
2022/09/19 03:01:15;;;;;;;1.47;0.87;;;9.60;99.90;;;;;;5033366;28;20653;-68
2022/09/19 03:06:37;;;;;;;2.20;0.90;;;9.70;99.90;;;;;;5033010;28;20373;-68
2022/09/19 03:09:06;;;;;;;2.50;0.90;;;9.70;99.90;;;;;;5032990;28;20398;-68
2022/09/19 03:11:34;;;;;;;2.87;1.10;;;9.70;99.90;;;;;;5032130;28;20435;-68
2022/09/19 03:14:00;;;;;;;3.10;0.80;;;9.80;99.90;;;;;;5033016;28;20414;-68
2022/09/19 03:16:35;;;;;;;2.13;1.10;;;9.80;99.90;;;;;;5032674;28;20464;-68
2022/09/19 03:19:09;;;;;;;1.50;1.10;;;9.80;99.90;;;;;;5032065;28;20455;-68
2022/09/19 03:21:37;;;;;;;0.80;0.70;;;9.80;99.90;;;;;;5032503;28;20434;-68
2022/09/19 03:24:03;;;;;;;3.80;0.80;;;9.60;99.90;;;;;;5036439;28;20408;-68
2022/09/19 03:26:34;;;;;;;1.40;0.97;;;9.50;99.90;;;;;;5050586;28;20422;-68
2022/09/19 03:29:01;;;;;;;2.90;1.07;;;9.60;99.90;;;;;;5052289;28;20396;-68
2022/09/19 03:31:26;;;;;;;2.00;0.80;;;9.50;99.90;;;;;;5052607;28;20463;-68
2022/09/19 03:33:55;;;;;;;2.33;1.10;;;9.50;99.90;;;;;;5052625;28;20413;-68
2022/09/19 03:36:22;;;;;;;2.40;0.80;;;9.50;99.90;;;;;;5052721;28;20200;-68
2022/09/19 03:38:47;;;;;;;1.70;1.00;;;9.60;99.90;;;;;;5052567;28;20452;-68
2022/09/19 03:41:19;;;;;;;3.50;1.23;;;9.60;99.90;;;;;;5052302;28;20413;-68
2022/09/19 03:43:46;;;;;;;1.83;0.70;;;9.60;99.90;;;;;;5051368;28;20192;-67
2022/09/19 03:46:17;;;;;;;1.63;1.00;;;9.70;99.90;;;;;;5052567;28;20430;-68
2022/09/19 03:48:47;;;;;;;1.83;1.00;;;9.60;99.90;;;;;;5052630;28;20392;-67
2022/09/19 03:51:15;;;;;;;1.87;1.00;;;9.60;99.90;;;;;;5052600;28;20950;-67
2022/09/19 03:53:44;;;;;;;3.00;1.20;;;9.70;99.90;;;;;;5052415;28;20453;-67
2022/09/19 03:56:11;;;;;;;2.07;0.90;;;9.60;99.90;;;;;;5052248;28;20445;-68
2022/09/19 03:58:41;;;;;;;1.23;0.87;;;9.60;99.90;;;;;;5051710;28;20456;-68
2022/09/19 04:01:07;;;;;;;3.83;1.53;;;9.60;99.90;;;;;;5051981;28;20436;-67
2022/09/19 04:03:35;;;;;;;3.40;1.27;;;9.70;99.90;;;;;;5052316;28;20942;-67
2022/09/19 04:06:01;;;;;;;1.87;1.10;;;9.70;99.90;;;;;;5052246;28;20500;-68
2022/09/19 04:08:27;;;;;;;4.00;1.47;;;9.80;99.90;;;;;;5052142;28;20487;-68
2022/09/19 04:10:53;;;;;;;2.70;1.03;;;9.80;99.90;;;;;;5052201;28;20480;-67
2022/09/19 04:13:21;;;;;;;1.57;1.07;;;9.80;99.90;;;;;;5051313;28;20406;-68
2022/09/19 04:15:48;;;;;;;1.87;1.30;;;9.70;99.90;;;;;;5052099;28;20442;-67
2022/09/19 04:18:14;;;;;;;3.13;1.40;;;9.80;99.90;;;;;;5052079;28;21073;-68
2022/09/19 04:20:39;;;;;;;4.93;1.60;;;9.80;99.90;;;;;;5051800;28;20516;-68
2022/09/19 04:23:05;;;;;;;3.73;1.40;;;9.80;99.90;;;;;;5052470;28;20405;-67
2022/09/19 04:25:35;;;;;;;3.10;1.20;;;10.00;99.90;;;;;;5052068;28;20163;-68
2022/09/19 04:28:06;;;;;;;2.20;0.90;;;10.00;99.90;;;;;;5050538;28;20171;-68
2022/09/19 04:30:34;;;;;;;1.70;1.07;;;10.00;99.90;;;;;;5052875;28;20440;-68
2022/09/19 04:33:02;;;;;;;5.07;1.30;;;9.90;99.90;;;;;;5055729;28;20420;-68
2022/09/19 04:35:28;;;;;;;4.23;1.33;;;10.00;99.90;;;;;;5055582;28;20413;-68
2022/09/19 04:37:54;;;;;;;5.93;1.50;;;10.00;99.90;;;;;;5055589;28;20412;-68
2022/09/19 04:40:21;;;;;;;2.90;1.03;;;9.90;99.90;;;;;;5052320;28;20461;-68
2022/09/19 04:42:47;;;;;;;3.60;1.20;;;9.90;99.90;;;;;;5053213;28;20255;-67
2022/09/19 04:45:20;;;;;;;4.20;1.47;;;9.90;99.90;;;;;;5055281;28;20911;-68
2022/09/19 04:47:48;;;;;;;4.90;1.30;;;10.00;99.90;;;;;;5055009;28;20712;-68
2022/09/19 04:50:14;;;;;;;2.67;1.40;;;9.90;99.90;;;;;;5053966;28;20428;-67
2022/09/19 04:52:41;;;;;;;7.77;1.83;;;10.00;99.90;;;;;;5054607;28;20556;-68
2022/09/19 04:55:08;;;;;;;2.80;1.23;;;10.00;99.90;;;;;;5055203;28;20502;-68
2022/09/19 04:57:33;;;;;;;4.80;1.10;;;10.10;99.90;;;;;;5051980;28;20832;-68
2022/09/19 04:59:59;;;;;;;7.50;1.63;;;10.10;99.90;;;;;;5054720;28;20463;-68
2022/09/19 05:02:30;;;;;;;6.77;1.60;;;10.20;99.90;;;;;;5054893;28;20297;-68
2022/09/19 05:04:55;;;;;;;4.60;1.97;;;10.10;99.90;;;;;;5054017;28;20174;-68
2022/09/19 05:07:33;;;;;;;4.00;1.43;;;10.10;99.90;;;;;;5054951;28;20497;-67
2022/09/19 05:10:00;;;;;;;6.70;2.33;;;10.10;99.90;;;;;;5055164;28;20215;-68
2022/09/19 05:12:25;;;;;;;3.80;2.60;;;10.10;99.90;;;;;;5054828;28;20441;-67
2022/09/19 05:14:51;;;;;;;6.50;1.40;;;10.10;99.90;;;;;;5054502;28;21001;-68
2022/09/19 05:17:17;;;;;;;3.33;1.43;;;10.20;99.90;;;;;;5055093;28;20205;-68
2022/09/19 05:19:44;;;;;;;2.47;1.43;;;10.20;99.90;;;;;;5054493;28;20927;-68
2022/09/19 05:22:10;;;;;;;7.40;1.50;;;10.30;99.90;;;;;;5053180;28;20301;-68
2022/09/19 05:24:37;;;;;;;6.23;1.80;;;10.40;99.90;;;;;;5054929;28;20504;-67
2022/09/19 05:27:03;;;;;;;3.10;1.27;;;10.40;99.90;;;;;;5053374;28;20424;-67
2022/09/19 05:29:32;;;;;;;5.13;1.60;;;10.40;99.90;;;;;;5054409;28;20424;-67
2022/09/19 05:32:01;;;;;;;3.97;1.47;;;10.40;99.90;;;;;;5054763;28;20490;-67
2022/09/19 05:34:27;;;;;;;8.50;1.87;;;10.40;99.90;;;;;;5054450;28;20907;-67
2022/09/19 05:36:53;;;;;;;6.13;1.50;;;10.50;99.90;;;;;;5054834;28;20485;-67
2022/09/19 05:39:18;;;;;;;4.93;1.50;;;10.50;99.90;;;;;;5053263;28;20301;-67
2022/09/19 05:41:44;;;;;;;4.87;1.50;;;10.60;99.90;;;;;;5043896;28;20588;-67
2022/09/19 05:44:09;;;;;;;4.10;1.40;;;10.60;99.90;;;;;;5034033;28;20167;-67
2022/09/19 05:46:35;;;;;;;3.40;1.60;;;10.60;99.90;;;;;;5034319;28;20526;-67
2022/09/19 05:49:00;;;;;;;3.10;1.60;;;10.60;99.90;;;;;;5034377;28;20651;-67
2022/09/19 05:51:26;;;;;;;4.37;1.50;;;10.70;99.90;;;;;;5034773;28;20234;-66
2022/09/19 05:53:52;;;;;;;3.53;1.50;;;10.70;99.90;;;;;;5034276;28;20200;-69
2022/09/19 05:56:23;;;;;;;4.90;1.70;;;10.80;99.90;;;;;;5036957;28;20545;-67
2022/09/19 05:58:55;;;;;;;12.37;2.47;;;10.70;99.90;;;;;;5053714;28;20191;-67
2022/09/19 06:01:21;;;;;;;5.53;1.80;;;11.00;99.90;;;;;;5053881;28;20461;-68
2022/09/19 06:03:46;;;;;;;5.47;1.60;;;11.10;99.90;;;;;;5053553;28;20768;-67
2022/09/19 06:06:18;;;;;;;4.40;1.70;;;11.00;99.90;;;;;;5053567;28;20408;-66
2022/09/19 06:08:45;;;;;;;5.03;1.50;;;11.10;99.90;;;;;;5053293;28;20151;-67
2022/09/19 06:11:11;;;;;;;5.77;1.90;;;11.20;99.90;;;;;;5053266;28;20439;-67
2022/09/19 06:16:22;;;;;;;4.00;1.63;;;11.40;99.90;;;;;;5053332;28;20390;-67
2022/09/19 06:18:48;;;;;;;7.80;1.87;;;11.30;99.90;;;;;;5052757;28;20452;-67
2022/09/19 06:21:13;;;;;;;4.90;1.97;;;11.20;99.90;;;;;;5052790;28;20803;-67
2022/09/19 06:23:40;;;;;;;4.07;1.63;;;11.20;99.90;;;;;;5053205;28;20471;-67
2022/09/19 06:26:06;;;;;;;5.10;1.90;;;11.30;99.90;;;;;;5052940;28;20202;-67
2022/09/19 06:28:32;;;;;;;8.53;1.80;;;11.30;99.90;;;;;;5051605;28;20502;-68
2022/09/19 06:31:06;;;;;;;4.93;1.90;;;11.20;99.90;;;;;;5053247;28;20233;-68
2022/09/19 06:33:31;;;;;;;5.67;1.80;;;11.30;99.90;;;;;;5051207;28;20915;-67
2022/09/19 06:36:01;;;;;;;4.63;2.17;;;11.30;99.90;;;;;;5052501;28;20432;-68
2022/09/19 06:38:27;;;;;;;5.93;1.90;;;11.30;99.90;;;;;;5051435;28;20521;-68
2022/09/19 06:40:53;;;;;;;8.80;2.30;;;11.40;99.90;;;;;;5052760;28;20816;-68
2022/09/19 06:43:19;;;;;;;2.57;1.50;;;11.60;99.90;;;;;;5051283;28;20415;-68
2022/09/19 06:45:44;;;;;;;5.43;2.10;;;11.70;99.90;;;;;;5050906;28;20175;-68
2022/09/19 06:48:10;;;;;;;3.40;2.17;;;11.50;99.90;;;;;;5051012;28;20181;-68
2022/09/19 06:50:36;;;;;;;9.27;2.10;;;11.50;99.90;;;;;;5052274;28;20186;-67
2022/09/19 06:53:02;;;;;;;5.23;1.67;;;11.50;99.90;;;;;;5052097;28;20634;-68
2022/09/19 06:55:29;;;;;;;6.03;2.33;;;11.60;99.90;;;;;;5052131;28;20175;-68
2022/09/19 06:58:02;;;;;;;5.63;1.70;;;11.70;99.90;;;;;;5050481;28;20943;-67
2022/09/19 07:00:30;;;;;;;4.23;1.70;;;11.70;99.90;;;;;;5014797;28;1066684;-67
2022/09/19 07:03:02;;;;;;;4.83;1.97;;;12.00;99.90;;;;;;5053087;28;20426;-68
2022/09/19 07:05:30;;;;;;;6.37;2.23;;;12.00;99.90;;;;;;5053277;28;20410;-68
2022/09/19 07:07:56;;;;;;;5.10;2.10;;;11.90;99.90;;;;;;5052875;28;20421;-67
2022/09/19 07:10:22;;;;;;;7.33;2.37;;;11.90;99.90;;;;;;5053022;28;20583;-68
2022/09/19 07:12:55;;;;;;;5.57;1.67;;;11.80;99.90;;;;;;5052431;28;20625;-67
2022/09/19 07:15:21;;;;;;;5.37;2.30;;;12.00;99.90;;;;;;5053193;28;20156;-68
2022/09/19 07:17:47;;;;;;;7.10;2.20;;;12.00;99.90;;;;;;5053325;28;20419;-67
2022/09/19 07:20:13;;;;;;;6.83;1.83;;;12.20;99.90;;;;;;5052318;28;20198;-67
2022/09/19 07:22:39;;;;;;;8.77;3.03;;;12.30;99.90;;;;;;5052856;28;20363;-67
2022/09/19 07:25:06;;;;;;;7.07;2.27;;;12.30;99.90;;;;;;5052877;28;20486;-68
2022/09/19 07:27:31;;;;;;;5.10;1.77;;;12.30;99.90;;;;;;5051274;28;20183;-66
2022/09/19 07:29:57;;;;;;;3.73;1.90;;;12.10;99.90;;;;;;5052348;28;20408;-67
2022/09/19 07:32:22;;;;;;;6.23;2.13;;;12.00;99.90;;;;;;5052312;28;20209;-67
2022/09/19 07:34:48;;;;;;;4.20;2.00;;;12.20;99.90;;;;;;5052854;28;20176;-67
2022/09/19 07:37:13;;;;;;;8.83;2.30;;;12.30;99.90;;;;;;5052372;28;20265;-68
2022/09/19 07:39:39;;;;;;;6.73;2.53;;;12.40;99.90;;;;;;5052339;28;20211;-68
2022/09/19 07:42:05;;;;;;;7.13;2.03;;;12.30;99.90;;;;;;5052038;28;20623;-67
2022/09/19 07:44:30;;;;;;;5.40;2.20;;;12.20;99.90;;;;;;5052908;28;20481;-68
2022/09/19 07:49:40;;;;;;;7.63;2.30;;;12.20;99.90;;;;;;5052253;28;20567;-68
2022/09/19 07:52:06;;;;;;;11.20;2.33;;;12.30;99.90;;;;;;5052969;28;20575;-68
2022/09/19 07:54:31;;;;;;;5.93;1.97;;;12.20;99.90;;;;;;5051254;28;20184;-67
2022/09/19 07:56:57;;;;;;;16.20;3.23;;;12.30;99.90;;;;;;5053213;28;20637;-68
2022/09/19 07:59:23;;;;;;;11.13;2.60;;;12.30;99.90;;;;;;5056333;28;20197;-67
2022/09/19 08:01:48;;;;;;;10.00;2.77;;;12.40;99.90;;;;;;5062247;28;20206;-68
2022/09/19 08:04:14;;;;;;;7.57;2.73;;;12.40;99.90;;;;;;5060420;28;20234;-68
2022/09/19 08:06:39;;;;;;;11.37;3.33;;;12.50;99.90;;;;;;5061456;28;20173;-68
2022/09/19 08:09:05;;;;;;;6.13;2.97;;;12.50;99.90;;;;;;5064478;28;20172;-68
2022/09/19 08:11:35;;;;;;;8.80;2.40;;;12.80;99.90;;;;;;5062762;28;20209;-68
2022/09/19 08:14:01;;;;;;;6.13;2.73;;;12.90;99.90;;;;;;5062052;28;20234;-67
2022/09/19 08:16:26;;;;;;;5.17;2.40;;;12.90;99.90;;;;;;5058612;28;20494;-68
2022/09/19 08:18:52;;;;;;;7.37;2.03;;;12.90;99.90;;;;;;5058171;28;20250;-68
2022/09/19 08:21:19;;;;;;;6.70;2.40;;;12.80;99.90;;;;;;5058560;28;20587;-67
2022/09/19 08:23:45;;;;;;;6.20;2.60;;;13.00;99.90;;;;;;5059439;28;20300;-68
2022/09/19 08:26:11;;;;;;;6.83;2.50;;;12.80;99.90;;;;;;5056200;28;20868;-68
2022/09/19 08:28:37;;;;;;;8.37;2.57;;;12.70;99.90;;;;;;5055426;28;20186;-68
2022/09/19 08:31:03;;;;;;;4.13;2.40;;;12.60;99.90;;;;;;5055931;28;20651;-68
2022/09/19 08:33:30;;;;;;;8.83;2.33;;;12.60;99.90;;;;;;5048303;28;20507;-68
2022/09/19 08:35:58;;;;;;;6.33;2.57;;;12.80;99.90;;;;;;5046582;28;20902;-68
2022/09/19 08:38:24;;;;;;;6.60;2.10;;;12.80;99.90;;;;;;5036442;28;20741;-68
2022/09/19 08:41:13;;;;;;;4.00;2.40;;;13.00;99.90;;;;;;5035534;28;20425;-67
2022/09/19 08:44:01;;;;;;;5.50;2.53;;;13.20;99.90;;;;;;5035255;28;20391;-68
2022/09/19 08:46:35;;;;;;;9.03;2.60;;;13.90;99.90;;;;;;5035757;28;20795;-68
2022/09/19 08:49:11;;;;;;;6.50;2.57;;;14.00;99.90;;;;;;5036149;28;20421;-68
2022/09/19 08:51:52;;;;;;;5.27;2.97;;;14.00;99.90;;;;;;5036069;28;20848;-68
2022/09/19 08:54:30;;;;;;;7.83;2.90;;;14.10;99.90;;;;;;5035778;28;20388;-67
2022/09/19 08:56:57;;;;;;;4.17;1.93;;;14.10;99.90;;;;;;5038405;28;20454;-67
2022/09/19 08:59:26;;;;;;;5.97;3.13;;;13.90;99.90;;;;;;5054559;28;20459;-67
2022/09/19 09:02:02;;;;;;;6.03;2.50;;;13.90;99.90;;;;;;5068678;22;20494;-71
2022/09/19 09:04:31;;;;;;;7.40;2.30;;;14.00;99.90;;;;;;5035879;28;20404;-72
2022/09/19 09:07:34;;;;;;;8.30;2.33;;;13.80;99.90;;;;;;5036354;28;20402;-72
2022/09/19 09:10:31;;;;;;;8.53;2.90;;;13.60;99.90;;;;;;5051002;28;20494;-72
2022/09/19 09:13:18;;;;;;;6.73;2.03;;;13.50;99.90;;;;;;5031359;28;20439;-71
2022/09/19 09:16:10;;;;;;;6.10;2.33;;;13.60;99.90;;;;;;5050942;28;20416;-71
2022/09/19 09:19:06;;;;;;;7.13;2.40;;;13.50;99.90;;;;;;5052567;28;20629;-72
2022/09/19 09:21:59;;;;;;;3.77;1.80;;;13.50;99.90;;;;;;5056237;28;20441;-71
2022/09/19 09:24:58;;;;;;;7.67;2.40;;;13.60;99.90;;;;;;5054178;28;20418;-72
2022/09/19 09:27:33;;;;;;;7.07;2.07;;;13.70;99.90;;;;;;5028732;28;20423;-72
2022/09/19 09:30:08;;;;;;;9.60;2.47;;;13.80;99.90;;;;;;5054413;28;20415;-72
2022/09/19 09:32:40;;;;;;;3.53;2.10;;;13.90;99.90;;;;;;5055372;28;20429;-72
2022/09/19 09:35:13;;;;;;;7.00;2.20;;;13.80;99.90;;;;;;5055143;28;20474;-72
2022/09/19 09:37:56;;;;;;;5.50;2.50;;;13.60;99.90;;;;;;5055332;28;20458;-72
2022/09/19 09:43:17;;;;;;;5.90;2.80;;;13.80;99.90;;;;;;5054967;28;20421;-71
2022/09/19 09:45:49;;;;;;;8.60;2.60;;;13.90;99.90;;;;;;5054489;28;20423;-71
2022/09/19 09:48:26;;;;;;;5.70;2.87;;;13.80;99.90;;;;;;5055544;28;20404;-71
2022/09/19 09:51:18;;;;;;;10.03;2.60;;;14.00;99.90;;;;;;5055444;28;20798;-71
2022/09/19 09:56:14;;;;;;;9.03;2.93;;;13.90;99.90;;;;;;5054473;28;20440;-72
2022/09/19 09:56:59;;;;;;;4.13;2.37;;;13.80;99.90;;;;;;5042746;28;20777;-73
2022/09/19 10:05:48;;;;;;;4.60;1.90;;;13.60;99.90;;;;;;5035370;28;20376;-72
2022/09/19 10:08:20;;;;;;;3.53;2.40;;;13.60;99.90;;;;;;5033520;28;20403;-72
2022/09/19 10:10:47;;;;;;;9.83;2.80;;;13.80;99.90;;;;;;5035052;28;20423;-73
2022/09/19 10:13:25;;;;;;;10.70;2.43;;;13.90;99.90;;;;;;5041559;28;20444;-73
2022/09/19 10:15:54;;;;;;;3.50;2.30;;;14.10;99.90;;;;;;5054889;28;20388;-72
2022/09/19 10:18:24;;;;;;;3.67;2.00;;;14.40;99.90;;;;;;5054355;28;20431;-72
2022/09/19 10:20:52;;;;;;;5.17;1.90;;;14.50;99.90;;;;;;5054629;28;20379;-71
2022/09/19 10:23:23;;;;;;;4.17;2.40;;;14.70;99.90;;;;;;5052892;28;20513;-71
2022/09/19 10:26:00;;;;;;;6.83;2.67;;;15.00;99.90;;;;;;5054493;28;20820;-71
2022/09/19 10:28:56;;;;;;;8.70;2.37;;;15.60;99.90;;;;;;5052600;28;20410;-73
2022/09/19 10:31:34;;;;;;;5.77;1.97;;;15.80;99.90;;;;;;5053235;28;20466;-71
2022/09/19 10:34:04;;;;;;;2.43;1.60;;;15.80;99.90;;;;;;5054310;28;20414;-71
2022/09/19 10:36:34;;;;;;;3.93;2.03;;;15.80;99.90;;;;;;5054025;28;20431;-71
2022/09/19 10:39:07;;;;;;;4.33;1.83;;;15.80;99.90;;;;;;5053389;28;20454;-71
2022/09/19 10:41:37;;;;;;;2.90;2.10;;;15.70;99.90;;;;;;5053760;28;20430;-72
2022/09/19 10:44:18;;;;;;;5.73;2.37;;;15.80;99.90;;;;;;5068762;28;20844;-73
2022/09/19 10:46:49;;;;;;;3.33;1.60;;;15.60;99.90;;;;;;5053696;28;20903;-71
2022/09/19 10:49:22;;;;;;;4.20;2.10;;;15.70;99.90;;;;;;5053892;28;20395;-71
2022/09/19 10:51:51;;;;;;;4.83;2.47;;;15.80;99.90;;;;;;5053499;28;20424;-72
2022/09/19 10:54:37;;;;;;;2.43;1.80;;;15.80;99.90;;;;;;5053348;28;20407;-72
2022/09/19 10:57:04;;;;;;;5.23;1.53;;;15.80;99.90;;;;;;5052798;28;20453;-71
2022/09/19 10:59:36;;;;;;;3.63;1.80;;;15.60;99.90;;;;;;5052002;28;20557;-72
2022/09/19 11:02:21;;;;;;;2.97;1.60;;;15.20;99.90;;;;;;5053243;28;20450;-71
2022/09/19 11:04:59;;;;;;;4.70;2.00;;;15.40;99.90;;;;;;5052223;28;20394;-71
2022/09/19 11:07:29;;;;;;;4.93;1.73;;;15.80;99.90;;;;;;5053641;28;20388;-72
2022/09/19 11:09:59;;;;;;;2.43;1.60;;;16.00;99.90;;;;;;5053595;28;20401;-71
2022/09/19 11:12:27;;;;;;;4.67;1.77;;;15.80;99.90;;;;;;5053357;28;20854;-72
2022/09/19 11:14:57;;;;;;;2.73;1.67;;;16.00;99.90;;;;;;5053862;28;20411;-72
2022/09/19 11:17:32;;;;;;;7.97;1.97;;;16.20;99.90;;;;;;5052719;28;20454;-71
2022/09/19 11:20:31;;;;;;;3.60;1.80;;;16.10;99.90;;;;;;5052990;28;20438;-71
2022/09/19 11:23:35;;;;;;;3.20;1.50;;;16.00;99.90;;;;;;5053911;28;20423;-72
2022/09/19 11:26:23;;;;;;;5.80;2.10;;;16.40;99.90;;;;;;5053878;28;20774;-72
2022/09/19 11:29:06;;;;;;;3.90;1.93;;;16.10;99.90;;;;;;5053061;28;20418;-73
2022/09/19 11:31:55;;;;;;;4.10;1.53;;;16.00;99.90;;;;;;5053429;28;20924;-71
2022/09/19 11:34:39;;;;;;;3.37;1.77;;;15.90;99.90;;;;;;5068628;28;20414;-72
2022/09/19 11:37:32;;;;;;;2.23;1.43;;;15.90;99.90;;;;;;5053847;28;20470;-71
2022/09/19 11:40:19;;;;;;;4.37;2.00;;;15.70;99.90;;;;;;5053678;28;20440;-72
2022/09/19 11:43:03;;;;;;;5.80;2.27;;;15.70;99.90;;;;;;5056996;28;20417;-71
2022/09/19 11:45:41;;;;;;;2.00;1.80;;;15.30;99.90;;;;;;5057434;28;20810;-71
2022/09/19 11:48:10;;;;;;;2.97;1.47;;;15.50;99.90;;;;;;5056936;28;20396;-71
2022/09/19 11:50:41;;;;;;;2.33;1.30;;;15.70;99.90;;;;;;5055887;28;20426;-71
2022/09/19 11:53:31;;;;;;;4.40;2.03;;;15.70;99.90;;;;;;5056547;28;20453;-70
2022/09/19 11:56:16;;;;;;;3.00;1.83;;;15.60;99.90;;;;;;5055920;28;20857;-71
2022/09/19 11:59:10;;;;;;;7.97;1.93;;;15.40;99.90;;;;;;5056881;28;20493;-71
2022/09/19 12:02:00;;;;;;;2.80;1.60;;;15.20;99.90;;;;;;5049172;28;20880;-71
2022/09/19 12:04:52;;;;;;;4.90;1.83;;;15.10;99.90;;;;;;5056974;28;20830;-72
2022/09/19 12:07:30;;;;;;;3.33;1.80;;;15.00;99.90;;;;;;5057231;28;20474;-72
2022/09/19 12:10:25;;;;;;;3.60;2.20;;;14.90;99.90;;;;;;5056993;28;20750;-73
2022/09/19 12:13:14;;;;;;;4.70;2.73;;;15.10;99.90;;;;;;5047681;28;20553;-70
2022/09/19 12:15:46;;;;;;;5.07;1.80;;;15.30;99.90;;;;;;5056893;28;20949;-73
2022/09/19 12:18:32;;;;;;;5.13;1.80;;;15.80;99.90;;;;;;5055693;28;20400;-70
2022/09/19 12:21:00;;;;;;;2.80;1.47;;;15.60;99.90;;;;;;5056159;28;20400;-72
2022/09/19 12:26:34;;;;;;;2.63;1.40;;;15.80;99.90;;;;;;5056571;28;20886;-71
2022/09/19 12:29:32;;;;;;;2.17;1.40;;;16.10;99.90;;;;;;5054652;28;20411;-71
2022/09/19 12:32:22;;;;;;;3.13;1.57;;;16.40;99.90;;;;;;5056223;28;20835;-70
2022/09/19 12:34:55;;;;;;;8.00;3.00;;;17.10;99.90;;;;;;5042256;28;20444;-71
2022/09/19 12:37:30;;;;;;;4.07;2.10;;;17.40;99.90;;;;;;5056040;28;20378;-71
2022/09/19 12:40:05;;;;;;;3.90;1.50;;;18.10;99.90;;;;;;5056270;28;20432;-72
2022/09/19 12:42:47;;;;;;;2.87;1.60;;;18.50;99.90;;;;;;5056473;28;20523;-71
2022/09/19 12:45:25;;;;;;;5.07;1.87;;;18.90;99.90;;;;;;5055722;28;20406;-72
2022/09/19 12:48:00;;;;;;;5.83;1.13;;;19.60;99.90;;;;;;5056356;28;20491;-72
2022/09/19 12:50:34;;;;;;;5.07;1.53;;;20.60;99.90;;;;;;5051615;28;20429;-71
2022/09/19 12:53:28;;;;;;;2.33;1.40;;;20.80;98.70;;;;;;5046774;28;20437;-71
2022/09/19 12:56:04;;;;;;;3.90;1.60;;;20.10;99.00;;;;;;5055235;28;20401;-71
2022/09/19 12:58:48;;;;;;;7.43;1.77;;;19.30;99.90;;;;;;5055689;28;20765;-71
2022/09/19 13:01:20;;;;;;;4.20;1.50;;;18.40;99.90;;;;;;5055794;28;20392;-71
2022/09/19 13:04:02;;;;;;;4.33;1.40;;;17.80;99.90;;;;;;5055876;28;20822;-71
2022/09/19 13:06:36;;;;;;;3.87;1.40;;;17.50;99.90;;;;;;5055715;28;20841;-72
2022/09/19 13:09:11;;;;;;;5.43;1.53;;;17.60;99.90;;;;;;5055712;28;20419;-71
2022/09/19 13:11:44;;;;;;;3.33;1.70;;;17.10;99.90;;;;;;5055916;28;20413;-72
2022/09/19 13:14:33;;;;;;;3.93;2.10;;;17.10;99.90;;;;;;5055268;28;20417;-72
2022/09/19 13:25:35;;;;;;;3.70;1.97;;;17.70;99.90;;;;;;5055244;28;20377;-72
2022/09/19 13:28:22;;;;;;;3.10;1.40;;;17.70;99.90;;;;;;5054269;28;20417;-70
2022/09/19 13:31:00;;;;;;;3.30;1.30;;;17.30;99.90;;;;;;5055061;28;20397;-71
2022/09/19 13:33:34;;;;;;;4.17;1.10;;;16.90;99.90;;;;;;5055612;28;20417;-71
2022/09/19 13:36:08;;;;;;;3.70;1.63;;;16.80;99.90;;;;;;5055527;28;20539;-72
2022/09/19 13:38:49;;;;;;;3.00;1.50;;;16.60;99.90;;;;;;5055156;28;20458;-72
2022/09/19 13:41:44;;;;;;;2.40;1.13;;;16.70;99.90;;;;;;5054964;28;20413;-72
2022/09/19 13:44:24;;;;;;;4.63;1.33;;;17.90;99.90;;;;;;5054826;28;20400;-71
2022/09/19 13:47:09;;;;;;;7.50;1.50;;;19.50;99.90;;;;;;5054908;28;20385;-72
2022/09/19 13:49:41;;;;;;;2.30;1.10;;;20.60;98.60;;;;;;5054840;28;20408;-72
2022/09/19 13:52:11;;;;;;;3.93;1.40;;;20.20;98.90;;;;;;5055053;28;20468;-72